Haymarket, VA (20169)

1:46 PM EST on March 03, 2015 (GMT -0500)
Evergreen Country Club | Change Station
CLOSE
Current Station
Personal Weather Station
Location: Haymarket, VA
Elevation: 436 ft
Nearby Weather Stations

Elev 436 ft 38.88 °N, 77.66 °W | Updated 29 seconds ago

Overcast
Overcast
33.5 °F
Feels Like 34 °F
N
0.0
Wind Variable Wind from SW
Gusts 1.0 mph

Today
High -- | Low -- °F
--% Chance of Precip.
Yesterday
High -- | Low -- °F
Precip. -- in
6:40 AM 6:05 PM
Waxing Gibbous, 97% visible
Pressure 30.30 in
Visibility 10.0 miles
Clouds Overcast 4500 ft
Windchill 34 °F
Dew Point 21 °F
Humidity 59%
Rainfall 0.00 in
Snow Depth Not available.
UV 2 out of 12
Pollen .90 out of 12
Air Quality Not available.
Flu Activity Not available.
METAR KIAD 031752Z 16011G16KT 10SM OVC045 M01/M08 A3029 RMK AO2 SLP261 FZRAPLB03E35 T10061083 10000 21033 58036

More Conditions Fewer Conditions

Pressure 30.30 in
Visibility 10.0 miles
Clouds Overcast 4500 ft
Windchill 34 °F
Dew Point 21 °F
Humidity 59%
Rainfall 0.00 in
Snow Depth Not available.
UV 2 out of 12
Pollen .90 out of 12
Air Quality Not available.
Flu Activity Not available.
METAR KIAD 031752Z 16011G16KT 10SM OVC045 M01/M08 A3029 RMK AO2 SLP261 FZRAPLB03E35 T10061083 10000 21033 58036

More Conditions Fewer Conditions

10-Day Weather Forecast

Almanac

Astronomy

Mar. 03, 2015 Rise Set
Actual Time
Civil Twilight
Nautical Twilight
Astronomical Twilight
Moon
Length of Visible Light
Length of Day
Tomorrow will be .
, % of the Moon is Illuminated

Today's Extremes

State Highs State Lows

Community

WunderPhotos

Upload Photos

1,802,198 photos uploaded!

WunderBlogs® & News

Nearby

Air Quality

  Air Quality AQ Index Pollutant
Not available.

Snow Depth

Station Depth Elevation

Earthquake Activity

City Distance Mag. Time & Date
Minimum magnitude displayed is 2.5.

Coastal Water Temperatures

Place Temperature

Nearby Weather Stations